sensor_id;sensor_type;location;lat;lon;timestamp;temperature;humidity
18160;DHT22;9205;52.032;4.314;2023-09-19T00:00:37;16.40;99.90
18160;DHT22;9205;52.032;4.314;2023-09-19T00:03:06;16.40;1.00
18160;DHT22;9205;52.032;4.314;2023-09-19T00:05:37;16.40;1.00
18160;DHT22;9205;52.032;4.314;2023-09-19T00:08:05;16.40;1.00
18160;DHT22;9205;52.032;4.314;2023-09-19T00:10:33;16.50;1.00
18160;DHT22;9205;52.032;4.314;2023-09-19T00:13:02;16.40;1.00
18160;DHT22;9205;52.032;4.314;2023-09-19T00:15:37;16.40;1.00
18160;DHT22;9205;52.032;4.314;2023-09-19T00:18:05;16.40;1.00
18160;DHT22;9205;52.032;4.314;2023-09-19T00:20:37;16.40;1.00
18160;DHT22;9205;52.032;4.314;2023-09-19T00:23:05;16.40;1.00
18160;DHT22;9205;52.032;4.314;2023-09-19T00:25:34;16.50;1.00
18160;DHT22;9205;52.032;4.314;2023-09-19T00:28:03;16.50;1.00
18160;DHT22;9205;52.032;4.314;2023-09-19T00:30:31;16.50;1.00
18160;DHT22;9205;52.032;4.314;2023-09-19T00:32:59;16.50;1.00
18160;DHT22;9205;52.032;4.314;2023-09-19T00:35:28;16.60;1.00
18160;DHT22;9205;52.032;4.314;2023-09-19T00:37:57;16.60;1.00
18160;DHT22;9205;52.032;4.314;2023-09-19T00:40:25;16.60;1.00
18160;DHT22;9205;52.032;4.314;2023-09-19T00:42:57;16.60;1.00
18160;DHT22;9205;52.032;4.314;2023-09-19T00:45:25;16.60;1.00
18160;DHT22;9205;52.032;4.314;2023-09-19T00:47:54;16.50;1.00
18160;DHT22;9205;52.032;4.314;2023-09-19T00:50:24;16.50;1.00
18160;DHT22;9205;52.032;4.314;2023-09-19T00:52:54;16.50;1.00
18160;DHT22;9205;52.032;4.314;2023-09-19T00:55:24;16.50;2.40
18160;DHT22;9205;52.032;4.314;2023-09-19T00:57:56;16.40;1.00
18160;DHT22;9205;52.032;4.314;2023-09-19T01:00:24;16.40;1.00
18160;DHT22;9205;52.032;4.314;2023-09-19T01:02:51;16.40;99.90
18160;DHT22;9205;52.032;4.314;2023-09-19T01:05:19;16.40;99.90
18160;DHT22;9205;52.032;4.314;2023-09-19T01:07:46;16.40;22.10
18160;DHT22;9205;52.032;4.314;2023-09-19T01:10:16;16.40;1.00
18160;DHT22;9205;52.032;4.314;2023-09-19T01:12:55;16.40;1.00
18160;DHT22;9205;52.032;4.314;2023-09-19T01:15:40;16.40;1.00
18160;DHT22;9205;52.032;4.314;2023-09-19T01:18:21;16.40;1.00
18160;DHT22;9205;52.032;4.314;2023-09-19T01:21:02;16.50;1.00
18160;DHT22;9205;52.032;4.314;2023-09-19T01:23:53;16.50;1.00
18160;DHT22;9205;52.032;4.314;2023-09-19T01:27:02;16.50;1.00
18160;DHT22;9205;52.032;4.314;2023-09-19T01:29:46;16.60;98.20
18160;DHT22;9205;52.032;4.314;2023-09-19T01:32:19;16.60;99.90
18160;DHT22;9205;52.032;4.314;2023-09-19T01:34:49;16.50;99.90
18160;DHT22;9205;52.032;4.314;2023-09-19T01:37:20;16.50;99.90
18160;DHT22;9205;52.032;4.314;2023-09-19T01:39:53;16.50;1.00
18160;DHT22;9205;52.032;4.314;2023-09-19T01:42:31;16.50;10.50
18160;DHT22;9205;52.032;4.314;2023-09-19T01:45:11;16.40;99.90
18160;DHT22;9205;52.032;4.314;2023-09-19T01:47:48;16.40;99.90
18160;DHT22;9205;52.032;4.314;2023-09-19T01:50:29;16.40;1.00
18160;DHT22;9205;52.032;4.314;2023-09-19T01:53:04;16.40;8.70
18160;DHT22;9205;52.032;4.314;2023-09-19T01:55:37;16.40;1.00
18160;DHT22;9205;52.032;4.314;2023-09-19T01:58:16;16.30;1.00
18160;DHT22;9205;52.032;4.314;2023-09-19T02:00:49;16.30;1.00
18160;DHT22;9205;52.032;4.314;2023-09-19T02:03:20;16.30;1.00
18160;DHT22;9205;52.032;4.314;2023-09-19T02:05:49;16.30;1.00
18160;DHT22;9205;52.032;4.314;2023-09-19T02:08:21;16.20;1.00
18160;DHT22;9205;52.032;4.314;2023-09-19T02:10:50;16.20;1.00
18160;DHT22;9205;52.032;4.314;2023-09-19T02:13:19;16.30;1.00
18160;DHT22;9205;52.032;4.314;2023-09-19T02:15:49;16.20;1.00
18160;DHT22;9205;52.032;4.314;2023-09-19T02:18:16;16.20;1.00
18160;DHT22;9205;52.032;4.314;2023-09-19T02:20:45;16.20;1.00
18160;DHT22;9205;52.032;4.314;2023-09-19T02:23:14;16.20;1.00
18160;DHT22;9205;52.032;4.314;2023-09-19T02:25:42;16.20;1.00
18160;DHT22;9205;52.032;4.314;2023-09-19T02:28:10;16.20;1.00
18160;DHT22;9205;52.032;4.314;2023-09-19T02:30:38;16.30;26.00
18160;DHT22;9205;52.032;4.314;2023-09-19T02:33:05;16.20;35.20
18160;DHT22;9205;52.032;4.314;2023-09-19T02:35:35;16.30;1.00
18160;DHT22;9205;52.032;4.314;2023-09-19T02:38:02;16.30;1.00
18160;DHT22;9205;52.032;4.314;2023-09-19T02:40:31;16.40;1.00
18160;DHT22;9205;52.032;4.314;2023-09-19T02:43:01;16.50;1.00
18160;DHT22;9205;52.032;4.314;2023-09-19T02:45:29;16.50;1.00
18160;DHT22;9205;52.032;4.314;2023-09-19T02:47:56;16.50;1.00
18160;DHT22;9205;52.032;4.314;2023-09-19T02:50:24;16.50;1.00
18160;DHT22;9205;52.032;4.314;2023-09-19T02:52:52;16.50;99.90
18160;DHT22;9205;52.032;4.314;2023-09-19T02:55:19;16.50;99.90
18160;DHT22;9205;52.032;4.314;2023-09-19T02:57:48;16.50;99.90
18160;DHT22;9205;52.032;4.314;2023-09-19T03:00:17;16.60;99.90
18160;DHT22;9205;52.032;4.314;2023-09-19T03:02:47;16.60;99.90
18160;DHT22;9205;52.032;4.314;2023-09-19T03:05:15;16.60;99.90
18160;DHT22;9205;52.032;4.314;2023-09-19T03:07:43;16.60;99.90
18160;DHT22;9205;52.032;4.314;2023-09-19T03:10:14;16.60;99.90
18160;DHT22;9205;52.032;4.314;2023-09-19T03:12:41;16.60;99.90
18160;DHT22;9205;52.032;4.314;2023-09-19T03:15:09;16.60;99.90
18160;DHT22;9205;52.032;4.314;2023-09-19T03:17:37;16.60;1.00
18160;DHT22;9205;52.032;4.314;2023-09-19T03:20:05;16.60;1.00
18160;DHT22;9205;52.032;4.314;2023-09-19T03:22:35;16.60;1.00
18160;DHT22;9205;52.032;4.314;2023-09-19T03:25:02;16.60;1.00
18160;DHT22;9205;52.032;4.314;2023-09-19T03:27:35;16.70;1.00
18160;DHT22;9205;52.032;4.314;2023-09-19T03:30:04;16.60;1.00
18160;DHT22;9205;52.032;4.314;2023-09-19T03:36:59;16.60;1.00
18160;DHT22;9205;52.032;4.314;2023-09-19T03:39:26;16.60;1.00
18160;DHT22;9205;52.032;4.314;2023-09-19T03:41:53;16.50;1.00
18160;DHT22;9205;52.032;4.314;2023-09-19T03:44:22;16.50;1.00
18160;DHT22;9205;52.032;4.314;2023-09-19T03:46:49;16.40;1.00
18160;DHT22;9205;52.032;4.314;2023-09-19T03:49:16;16.50;1.00
18160;DHT22;9205;52.032;4.314;2023-09-19T03:51:45;16.50;1.00
18160;DHT22;9205;52.032;4.314;2023-09-19T03:54:12;16.50;1.00
18160;DHT22;9205;52.032;4.314;2023-09-19T03:56:39;16.40;1.00
18160;DHT22;9205;52.032;4.314;2023-09-19T03:59:06;16.50;1.00
18160;DHT22;9205;52.032;4.314;2023-09-19T04:01:36;16.40;1.00
18160;DHT22;9205;52.032;4.314;2023-09-19T04:04:03;16.40;1.00
18160;DHT22;9205;52.032;4.314;2023-09-19T04:06:35;16.40;99.90
18160;DHT22;9205;52.032;4.314;2023-09-19T04:09:03;16.40;99.90
18160;DHT22;9205;52.032;4.314;2023-09-19T04:11:32;16.40;92.70
18160;DHT22;9205;52.032;4.314;2023-09-19T04:14:03;16.40;1.00
18160;DHT22;9205;52.032;4.314;2023-09-19T04:16:31;16.30;1.00
18160;DHT22;9205;52.032;4.314;2023-09-19T04:19:00;16.30;1.00
18160;DHT22;9205;52.032;4.314;2023-09-19T04:21:28;16.30;1.00
18160;DHT22;9205;52.032;4.314;2023-09-19T04:23:55;16.30;1.00
18160;DHT22;9205;52.032;4.314;2023-09-19T04:26:22;16.40;1.00
18160;DHT22;9205;52.032;4.314;2023-09-19T04:28:51;16.40;1.00
18160;DHT22;9205;52.032;4.314;2023-09-19T04:31:18;16.40;1.00
18160;DHT22;9205;52.032;4.314;2023-09-19T04:33:47;16.30;1.00
18160;DHT22;9205;52.032;4.314;2023-09-19T04:36:16;16.30;1.00
18160;DHT22;9205;52.032;4.314;2023-09-19T04:38:43;16.30;1.00
18160;DHT22;9205;52.032;4.314;2023-09-19T04:41:10;16.30;1.00
18160;DHT22;9205;52.032;4.314;2023-09-19T04:43:37;16.20;1.00
18160;DHT22;9205;52.032;4.314;2023-09-19T04:46:04;16.20;1.00
18160;DHT22;9205;52.032;4.314;2023-09-19T04:48:32;16.30;1.00
18160;DHT22;9205;52.032;4.314;2023-09-19T04:51:00;16.30;1.00
18160;DHT22;9205;52.032;4.314;2023-09-19T04:53:28;16.30;1.00
18160;DHT22;9205;52.032;4.314;2023-09-19T04:55:56;16.30;1.00
18160;DHT22;9205;52.032;4.314;2023-09-19T04:58:23;16.30;1.00
18160;DHT22;9205;52.032;4.314;2023-09-19T05:00:50;16.30;1.00
18160;DHT22;9205;52.032;4.314;2023-09-19T05:03:18;16.30;1.00
18160;DHT22;9205;52.032;4.314;2023-09-19T05:05:45;16.30;1.00
18160;DHT22;9205;52.032;4.314;2023-09-19T05:08:12;16.30;1.00
18160;DHT22;9205;52.032;4.314;2023-09-19T05:10:41;16.40;1.00
18160;DHT22;9205;52.032;4.314;2023-09-19T05:13:09;16.40;1.00
18160;DHT22;9205;52.032;4.314;2023-09-19T05:15:36;16.40;1.00
18160;DHT22;9205;52.032;4.314;2023-09-19T05:18:04;16.40;1.00
18160;DHT22;9205;52.032;4.314;2023-09-19T05:20:32;16.40;1.00
18160;DHT22;9205;52.032;4.314;2023-09-19T05:23:04;16.40;99.90
18160;DHT22;9205;52.032;4.314;2023-09-19T05:25:35;16.40;99.90
18160;DHT22;9205;52.032;4.314;2023-09-19T05:28:06;16.50;99.90
18160;DHT22;9205;52.032;4.314;2023-09-19T05:30:34;16.40;99.90
18160;DHT22;9205;52.032;4.314;2023-09-19T05:33:04;16.40;99.90
18160;DHT22;9205;52.032;4.314;2023-09-19T05:35:31;16.40;66.80
18160;DHT22;9205;52.032;4.314;2023-09-19T05:37:59;16.40;9.90
18160;DHT22;9205;52.032;4.314;2023-09-19T05:40:27;16.40;1.00
18160;DHT22;9205;52.032;4.314;2023-09-19T05:42:54;16.40;1.00
18160;DHT22;9205;52.032;4.314;2023-09-19T05:45:22;16.40;13.40
18160;DHT22;9205;52.032;4.314;2023-09-19T05:47:50;16.50;99.90
18160;DHT22;9205;52.032;4.314;2023-09-19T05:50:21;16.50;99.90
18160;DHT22;9205;52.032;4.314;2023-09-19T05:52:54;16.50;99.90
18160;DHT22;9205;52.032;4.314;2023-09-19T05:55:21;16.50;99.90
18160;DHT22;9205;52.032;4.314;2023-09-19T05:57:50;16.50;99.90
18160;DHT22;9205;52.032;4.314;2023-09-19T06:00:18;16.60;99.90
18160;DHT22;9205;52.032;4.314;2023-09-19T06:02:51;16.60;99.90
18160;DHT22;9205;52.032;4.314;2023-09-19T06:05:19;16.60;99.90
18160;DHT22;9205;52.032;4.314;2023-09-19T06:07:47;16.60;99.90
18160;DHT22;9205;52.032;4.314;2023-09-19T06:10:14;16.60;99.90
18160;DHT22;9205;52.032;4.314;2023-09-19T06:12:43;16.70;99.90
18160;DHT22;9205;52.032;4.314;2023-09-19T06:15:11;16.60;99.90
18160;DHT22;9205;52.032;4.314;2023-09-19T06:17:41;16.70;99.90
18160;DHT22;9205;52.032;4.314;2023-09-19T06:20:11;16.60;99.90
18160;DHT22;9205;52.032;4.314;2023-09-19T06:22:41;16.60;31.20
18160;DHT22;9205;52.032;4.314;2023-09-19T06:25:09;16.60;1.00
18160;DHT22;9205;52.032;4.314;2023-09-19T06:27:38;16.60;1.00
18160;DHT22;9205;52.032;4.314;2023-09-19T06:30:08;16.60;1.00
18160;DHT22;9205;52.032;4.314;2023-09-19T06:32:37;16.60;1.00
18160;DHT22;9205;52.032;4.314;2023-09-19T06:35:05;16.60;43.40
18160;DHT22;9205;52.032;4.314;2023-09-19T06:37:35;16.60;76.70
18160;DHT22;9205;52.032;4.314;2023-09-19T06:40:06;16.60;99.90
18160;DHT22;9205;52.032;4.314;2023-09-19T06:42:35;16.60;1.00
18160;DHT22;9205;52.032;4.314;2023-09-19T06:45:04;16.60;1.00
18160;DHT22;9205;52.032;4.314;2023-09-19T06:47:32;16.70;1.00
18160;DHT22;9205;52.032;4.314;2023-09-19T06:49:59;16.70;1.00
18160;DHT22;9205;52.032;4.314;2023-09-19T06:52:28;16.70;1.00
18160;DHT22;9205;52.032;4.314;2023-09-19T06:54:56;16.70;1.00
18160;DHT22;9205;52.032;4.314;2023-09-19T06:57:24;16.50;1.00
18160;DHT22;9205;52.032;4.314;2023-09-19T06:59:51;16.40;1.00
18160;DHT22;9205;52.032;4.314;2023-09-19T07:02:18;16.40;99.90
18160;DHT22;9205;52.032;4.314;2023-09-19T07:04:47;16.30;99.90
18160;DHT22;9205;52.032;4.314;2023-09-19T07:07:15;16.20;1.00
18160;DHT22;9205;52.032;4.314;2023-09-19T07:09:42;16.20;1.00
18160;DHT22;9205;52.032;4.314;2023-09-19T07:12:11;16.20;1.00
18160;DHT22;9205;52.032;4.314;2023-09-19T07:14:38;16.30;1.00
18160;DHT22;9205;52.032;4.314;2023-09-19T07:17:05;16.20;1.00
18160;DHT22;9205;52.032;4.314;2023-09-19T07:19:33;16.20;1.00
18160;DHT22;9205;52.032;4.314;2023-09-19T07:22:00;16.30;1.00
18160;DHT22;9205;52.032;4.314;2023-09-19T07:24:28;16.30;1.00
18160;DHT22;9205;52.032;4.314;2023-09-19T07:26:55;16.20;1.00
18160;DHT22;9205;52.032;4.314;2023-09-19T07:29:24;16.20;1.00
18160;DHT22;9205;52.032;4.314;2023-09-19T07:31:51;16.30;1.00
18160;DHT22;9205;52.032;4.314;2023-09-19T07:34:19;16.20;1.00
18160;DHT22;9205;52.032;4.314;2023-09-19T07:36:48;16.20;1.00
18160;DHT22;9205;52.032;4.314;2023-09-19T07:39:16;16.10;1.00
18160;DHT22;9205;52.032;4.314;2023-09-19T07:41:43;16.20;1.00
18160;DHT22;9205;52.032;4.314;2023-09-19T07:44:10;16.20;1.00
18160;DHT22;9205;52.032;4.314;2023-09-19T07:46:38;16.20;1.00
18160;DHT22;9205;52.032;4.314;2023-09-19T07:49:06;16.20;1.00
18160;DHT22;9205;52.032;4.314;2023-09-19T07:51:33;16.10;1.00
18160;DHT22;9205;52.032;4.314;2023-09-19T07:54:01;16.20;1.00
18160;DHT22;9205;52.032;4.314;2023-09-19T07:56:29;16.10;1.00
18160;DHT22;9205;52.032;4.314;2023-09-19T07:58:57;16.20;1.00
18160;DHT22;9205;52.032;4.314;2023-09-19T08:01:24;16.20;1.00
18160;DHT22;9205;52.032;4.314;2023-09-19T08:03:54;16.20;1.00
18160;DHT22;9205;52.032;4.314;2023-09-19T08:06:21;16.20;1.00
18160;DHT22;9205;52.032;4.314;2023-09-19T08:08:50;16.20;1.00
18160;DHT22;9205;52.032;4.314;2023-09-19T08:11:20;16.20;1.00
18160;DHT22;9205;52.032;4.314;2023-09-19T08:13:50;16.10;1.00
18160;DHT22;9205;52.032;4.314;2023-09-19T08:16:18;16.20;1.00
18160;DHT22;9205;52.032;4.314;2023-09-19T08:18:48;16.30;1.00
18160;DHT22;9205;52.032;4.314;2023-09-19T08:21:22;16.30;1.00
18160;DHT22;9205;52.032;4.314;2023-09-19T08:23:49;16.50;1.00
18160;DHT22;9205;52.032;4.314;2023-09-19T08:26:17;16.40;1.00
18160;DHT22;9205;52.032;4.314;2023-09-19T08:28:45;16.50;1.00
18160;DHT22;9205;52.032;4.314;2023-09-19T08:31:13;16.50;1.00
18160;DHT22;9205;52.032;4.314;2023-09-19T08:33:42;16.40;1.00
18160;DHT22;9205;52.032;4.314;2023-09-19T08:36:11;16.40;1.00
18160;DHT22;9205;52.032;4.314;2023-09-19T08:38:41;16.40;1.00
18160;DHT22;9205;52.032;4.314;2023-09-19T08:41:08;16.40;1.00
18160;DHT22;9205;52.032;4.314;2023-09-19T08:43:35;16.30;1.00
18160;DHT22;9205;52.032;4.314;2023-09-19T08:46:08;16.10;1.00
18160;DHT22;9205;52.032;4.314;2023-09-19T08:48:40;16.10;1.00
18160;DHT22;9205;52.032;4.314;2023-09-19T08:51:18;16.00;1.00
18160;DHT22;9205;52.032;4.314;2023-09-19T08:54:03;16.10;1.00
18160;DHT22;9205;52.032;4.314;2023-09-19T08:56:33;16.20;1.00
18160;DHT22;9205;52.032;4.314;2023-09-19T08:59:03;16.30;1.00
18160;DHT22;9205;52.032;4.314;2023-09-19T09:01:33;16.40;1.00
18160;DHT22;9205;52.032;4.314;2023-09-19T09:04:02;16.50;1.00
18160;DHT22;9205;52.032;4.314;2023-09-19T09:06:31;16.70;1.00
18160;DHT22;9205;52.032;4.314;2023-09-19T09:09:00;16.70;1.00
18160;DHT22;9205;52.032;4.314;2023-09-19T09:11:33;16.90;1.00
18160;DHT22;9205;52.032;4.314;2023-09-19T09:14:00;17.00;1.00
18160;DHT22;9205;52.032;4.314;2023-09-19T09:16:30;17.00;1.00
18160;DHT22;9205;52.032;4.314;2023-09-19T09:18:57;17.20;1.00
18160;DHT22;9205;52.032;4.314;2023-09-19T09:21:25;17.20;1.00
18160;DHT22;9205;52.032;4.314;2023-09-19T09:23:53;17.30;1.00
18160;DHT22;9205;52.032;4.314;2023-09-19T09:26:40;17.20;1.00
18160;DHT22;9205;52.032;4.314;2023-09-19T09:29:09;17.30;1.00
18160;DHT22;9205;52.032;4.314;2023-09-19T09:31:36;17.40;1.00
18160;DHT22;9205;52.032;4.314;2023-09-19T09:34:07;17.40;1.00
18160;DHT22;9205;52.032;4.314;2023-09-19T09:36:36;17.50;1.00
18160;DHT22;9205;52.032;4.314;2023-09-19T09:39:04;17.50;1.00
18160;DHT22;9205;52.032;4.314;2023-09-19T09:41:45;17.50;1.00
18160;DHT22;9205;52.032;4.314;2023-09-19T09:44:13;17.50;1.00
18160;DHT22;9205;52.032;4.314;2023-09-19T09:46:42;17.50;1.00
18160;DHT22;9205;52.032;4.314;2023-09-19T09:49:28;17.40;1.00
18160;DHT22;9205;52.032;4.314;2023-09-19T09:52:00;17.60;1.00
18160;DHT22;9205;52.032;4.314;2023-09-19T09:54:32;17.60;1.00
18160;DHT22;9205;52.032;4.314;2023-09-19T09:57:05;17.60;1.00
18160;DHT22;9205;52.032;4.314;2023-09-19T09:59:50;17.60;1.00
18160;DHT22;9205;52.032;4.314;2023-09-19T10:02:21;17.60;1.00
18160;DHT22;9205;52.032;4.314;2023-09-19T10:04:55;17.80;1.00
18160;DHT22;9205;52.032;4.314;2023-09-19T10:07:35;17.70;1.00
18160;DHT22;9205;52.032;4.314;2023-09-19T10:10:07;17.70;1.00
18160;DHT22;9205;52.032;4.314;2023-09-19T10:12:47;17.70;1.00
18160;DHT22;9205;52.032;4.314;2023-09-19T10:15:17;17.70;1.00
18160;DHT22;9205;52.032;4.314;2023-09-19T10:17:47;17.90;1.00
18160;DHT22;9205;52.032;4.314;2023-09-19T10:20:16;18.00;1.00
18160;DHT22;9205;52.032;4.314;2023-09-19T10:22:59;18.10;1.00
18160;DHT22;9205;52.032;4.314;2023-09-19T10:25:28;18.00;1.00
18160;DHT22;9205;52.032;4.314;2023-09-19T10:28:00;18.10;1.00
18160;DHT22;9205;52.032;4.314;2023-09-19T10:30:30;18.00;1.00
18160;DHT22;9205;52.032;4.314;2023-09-19T10:33:01;18.10;1.00
18160;DHT22;9205;52.032;4.314;2023-09-19T10:35:29;18.20;1.00
18160;DHT22;9205;52.032;4.314;2023-09-19T10:38:00;18.10;1.00
18160;DHT22;9205;52.032;4.314;2023-09-19T10:40:28;18.20;1.00
18160;DHT22;9205;52.032;4.314;2023-09-19T10:43:03;18.40;1.00
18160;DHT22;9205;52.032;4.314;2023-09-19T10:45:33;18.40;1.00
18160;DHT22;9205;52.032;4.314;2023-09-19T10:48:04;18.50;1.00
18160;DHT22;9205;52.032;4.314;2023-09-19T10:50:41;18.60;1.00
18160;DHT22;9205;52.032;4.314;2023-09-19T10:53:12;18.60;99.90
18160;DHT22;9205;52.032;4.314;2023-09-19T10:55:49;18.50;99.90
18160;DHT22;9205;52.032;4.314;2023-09-19T10:58:28;18.50;99.90
18160;DHT22;9205;52.032;4.314;2023-09-19T11:01:00;18.50;99.90
18160;DHT22;9205;52.032;4.314;2023-09-19T11:03:38;18.50;1.00
18160;DHT22;9205;52.032;4.314;2023-09-19T11:06:14;18.50;1.00
18160;DHT22;9205;52.032;4.314;2023-09-19T11:09:00;18.60;1.00
18160;DHT22;9205;52.032;4.314;2023-09-19T11:11:52;18.50;99.90
18160;DHT22;9205;52.032;4.314;2023-09-19T11:14:41;18.50;99.90
18160;DHT22;9205;52.032;4.314;2023-09-19T11:17:40;18.40;99.90
18160;DHT22;9205;52.032;4.314;2023-09-19T11:20:21;18.40;99.90
18160;DHT22;9205;52.032;4.314;2023-09-19T11:23:22;18.40;99.90
18160;DHT22;9205;52.032;4.314;2023-09-19T11:25:53;18.50;1.00
18160;DHT22;9205;52.032;4.314;2023-09-19T11:28:30;18.60;1.00
18160;DHT22;9205;52.032;4.314;2023-09-19T11:34:46;18.60;99.90
18160;DHT22;9205;52.032;4.314;2023-09-19T11:40:37;18.50;1.00
18160;DHT22;9205;52.032;4.314;2023-09-19T11:43:29;18.50;1.00
18160;DHT22;9205;52.032;4.314;2023-09-19T11:46:07;18.30;1.00
18160;DHT22;9205;52.032;4.314;2023-09-19T11:48:35;18.40;1.00
18160;DHT22;9205;52.032;4.314;2023-09-19T11:51:14;18.40;1.00
18160;DHT22;9205;52.032;4.314;2023-09-19T11:53:54;18.50;1.00
18160;DHT22;9205;52.032;4.314;2023-09-19T11:56:24;18.50;1.00
18160;DHT22;9205;52.032;4.314;2023-09-19T11:58:55;18.50;1.00
18160;DHT22;9205;52.032;4.314;2023-09-19T12:01:29;18.60;1.00
18160;DHT22;9205;52.032;4.314;2023-09-19T12:04:00;18.90;1.00
18160;DHT22;9205;52.032;4.314;2023-09-19T12:06:30;19.20;1.00
18160;DHT22;9205;52.032;4.314;2023-09-19T12:08:58;19.20;1.00
18160;DHT22;9205;52.032;4.314;2023-09-19T12:11:28;19.30;99.90
18160;DHT22;9205;52.032;4.314;2023-09-19T12:13:59;19.20;99.90
18160;DHT22;9205;52.032;4.314;2023-09-19T12:16:28;19.20;99.90
18160;DHT22;9205;52.032;4.314;2023-09-19T12:18:56;19.30;99.90
18160;DHT22;9205;52.032;4.314;2023-09-19T12:21:27;19.30;1.00
18160;DHT22;9205;52.032;4.314;2023-09-19T12:24:07;19.20;1.00
18160;DHT22;9205;52.032;4.314;2023-09-19T12:26:39;19.20;1.00
18160;DHT22;9205;52.032;4.314;2023-09-19T12:29:20;19.00;99.90
18160;DHT22;9205;52.032;4.314;2023-09-19T12:31:51;19.10;99.90
18160;DHT22;9205;52.032;4.314;2023-09-19T12:34:25;19.10;99.90
18160;DHT22;9205;52.032;4.314;2023-09-19T12:37:10;19.10;99.90
18160;DHT22;9205;52.032;4.314;2023-09-19T12:39:39;19.20;99.90
18160;DHT22;9205;52.032;4.314;2023-09-19T12:42:10;19.30;99.90
18160;DHT22;9205;52.032;4.314;2023-09-19T12:44:41;19.50;99.90
18160;DHT22;9205;52.032;4.314;2023-09-19T12:47:13;19.30;99.90
18160;DHT22;9205;52.032;4.314;2023-09-19T12:50:08;19.30;99.90
18160;DHT22;9205;52.032;4.314;2023-09-19T12:52:45;19.20;99.90
18160;DHT22;9205;52.032;4.314;2023-09-19T12:55:21;19.00;1.00
18160;DHT22;9205;52.032;4.314;2023-09-19T12:58:02;19.00;1.00
18160;DHT22;9205;52.032;4.314;2023-09-19T13:00:36;19.00;1.00
18160;DHT22;9205;52.032;4.314;2023-09-19T13:03:12;19.00;99.90
18160;DHT22;9205;52.032;4.314;2023-09-19T13:05:51;18.90;1.00
18160;DHT22;9205;52.032;4.314;2023-09-19T13:08:26;18.70;1.00
18160;DHT22;9205;52.032;4.314;2023-09-19T13:11:02;18.50;1.00
18160;DHT22;9205;52.032;4.314;2023-09-19T13:13:32;18.50;1.00
18160;DHT22;9205;52.032;4.314;2023-09-19T13:16:02;18.60;1.00
18160;DHT22;9205;52.032;4.314;2023-09-19T13:18:46;18.70;1.00
18160;DHT22;9205;52.032;4.314;2023-09-19T13:21:17;18.80;1.00
18160;DHT22;9205;52.032;4.314;2023-09-19T13:23:54;18.70;1.00
18160;DHT22;9205;52.032;4.314;2023-09-19T13:26:25;18.70;1.00
18160;DHT22;9205;52.032;4.314;2023-09-19T13:28:53;18.80;1.00
18160;DHT22;9205;52.032;4.314;2023-09-19T13:31:20;18.70;1.00
18160;DHT22;9205;52.032;4.314;2023-09-19T13:33:50;18.60;1.00
18160;DHT22;9205;52.032;4.314;2023-09-19T13:36:17;18.50;1.00
18160;DHT22;9205;52.032;4.314;2023-09-19T13:38:45;18.40;1.00
18160;DHT22;9205;52.032;4.314;2023-09-19T13:41:14;18.40;1.00
18160;DHT22;9205;52.032;4.314;2023-09-19T13:43:42;18.40;1.00
18160;DHT22;9205;52.032;4.314;2023-09-19T13:46:14;18.40;1.00
18160;DHT22;9205;52.032;4.314;2023-09-19T13:48:43;18.50;1.00
18160;DHT22;9205;52.032;4.314;2023-09-19T13:51:12;18.50;1.00
18160;DHT22;9205;52.032;4.314;2023-09-19T13:53:40;18.50;1.00
18160;DHT22;9205;52.032;4.314;2023-09-19T13:56:07;18.30;1.00
18160;DHT22;9205;52.032;4.314;2023-09-19T13:58:35;18.40;1.00
18160;DHT22;9205;52.032;4.314;2023-09-19T14:01:02;18.20;1.00
18160;DHT22;9205;52.032;4.314;2023-09-19T14:03:29;18.10;1.00
18160;DHT22;9205;52.032;4.314;2023-09-19T14:05:57;18.00;17.20
18160;DHT22;9205;52.032;4.314;2023-09-19T14:08:25;18.10;39.00
18160;DHT22;9205;52.032;4.314;2023-09-19T14:10:52;18.20;48.90
18160;DHT22;9205;52.032;4.314;2023-09-19T14:13:20;18.00;46.80
18160;DHT22;9205;52.032;4.314;2023-09-19T14:15:47;18.10;36.20
18160;DHT22;9205;52.032;4.314;2023-09-19T14:18:14;18.10;72.00
18160;DHT22;9205;52.032;4.314;2023-09-19T14:20:42;18.10;99.90
18160;DHT22;9205;52.032;4.314;2023-09-19T14:23:09;18.10;99.90
18160;DHT22;9205;52.032;4.314;2023-09-19T14:25:39;18.00;91.50
18160;DHT22;9205;52.032;4.314;2023-09-19T14:28:06;18.10;99.90
18160;DHT22;9205;52.032;4.314;2023-09-19T14:30:34;18.00;99.90
18160;DHT22;9205;52.032;4.314;2023-09-19T14:33:03;18.00;91.40
18160;DHT22;9205;52.032;4.314;2023-09-19T14:35:31;18.00;85.40
18160;DHT22;9205;52.032;4.314;2023-09-19T14:37:58;18.10;50.20
18160;DHT22;9205;52.032;4.314;2023-09-19T14:40:25;18.00;38.40
18160;DHT22;9205;52.032;4.314;2023-09-19T14:42:54;18.20;1.00
18160;DHT22;9205;52.032;4.314;2023-09-19T14:45:21;18.20;1.00
18160;DHT22;9205;52.032;4.314;2023-09-19T14:47:51;18.20;1.00
18160;DHT22;9205;52.032;4.314;2023-09-19T14:50:20;18.00;1.00
18160;DHT22;9205;52.032;4.314;2023-09-19T14:52:48;17.90;29.70
18160;DHT22;9205;52.032;4.314;2023-09-19T14:55:17;17.80;99.90
18160;DHT22;9205;52.032;4.314;2023-09-19T14:57:49;17.60;99.90
18160;DHT22;9205;52.032;4.314;2023-09-19T15:00:18;17.70;99.90
18160;DHT22;9205;52.032;4.314;2023-09-19T15:02:47;17.70;99.90
18160;DHT22;9205;52.032;4.314;2023-09-19T15:05:15;17.60;99.90
18160;DHT22;9205;52.032;4.314;2023-09-19T15:07:43;17.60;99.90
18160;DHT22;9205;52.032;4.314;2023-09-19T15:10:10;17.70;99.90
18160;DHT22;9205;52.032;4.314;2023-09-19T15:12:38;17.90;99.90
18160;DHT22;9205;52.032;4.314;2023-09-19T15:15:06;17.80;99.90
18160;DHT22;9205;52.032;4.314;2023-09-19T15:17:36;18.00;99.90
18160;DHT22;9205;52.032;4.314;2023-09-19T15:20:04;17.90;99.90
18160;DHT22;9205;52.032;4.314;2023-09-19T15:22:33;17.80;99.90
18160;DHT22;9205;52.032;4.314;2023-09-19T15:25:01;17.80;99.90
18160;DHT22;9205;52.032;4.314;2023-09-19T15:27:29;17.90;99.90
18160;DHT22;9205;52.032;4.314;2023-09-19T15:29:58;17.90;99.90
18160;DHT22;9205;52.032;4.314;2023-09-19T15:32:26;18.00;99.90
18160;DHT22;9205;52.032;4.314;2023-09-19T15:34:55;17.80;99.90
18160;DHT22;9205;52.032;4.314;2023-09-19T15:37:22;17.80;99.90
18160;DHT22;9205;52.032;4.314;2023-09-19T15:39:50;18.00;99.90
18160;DHT22;9205;52.032;4.314;2023-09-19T15:42:18;18.00;99.90
18160;DHT22;9205;52.032;4.314;2023-09-19T15:44:45;18.00;99.90
18160;DHT22;9205;52.032;4.314;2023-09-19T15:47:15;17.90;99.90
18160;DHT22;9205;52.032;4.314;2023-09-19T15:49:42;17.90;99.90
18160;DHT22;9205;52.032;4.314;2023-09-19T15:52:11;17.80;99.90
18160;DHT22;9205;52.032;4.314;2023-09-19T15:54:38;17.80;99.90
18160;DHT22;9205;52.032;4.314;2023-09-19T15:57:10;17.90;99.90
18160;DHT22;9205;52.032;4.314;2023-09-19T15:59:38;17.90;99.90
18160;DHT22;9205;52.032;4.314;2023-09-19T16:02:06;17.80;99.90
18160;DHT22;9205;52.032;4.314;2023-09-19T16:04:33;17.90;99.90
18160;DHT22;9205;52.032;4.314;2023-09-19T16:07:02;17.90;99.90
18160;DHT22;9205;52.032;4.314;2023-09-19T16:09:31;18.00;99.90
18160;DHT22;9205;52.032;4.314;2023-09-19T16:11:58;17.90;99.90
18160;DHT22;9205;52.032;4.314;2023-09-19T16:14:25;17.90;99.90
18160;DHT22;9205;52.032;4.314;2023-09-19T16:16:56;17.60;99.90
18160;DHT22;9205;52.032;4.314;2023-09-19T16:19:25;17.60;99.90
18160;DHT22;9205;52.032;4.314;2023-09-19T16:21:52;17.60;99.90
18160;DHT22;9205;52.032;4.314;2023-09-19T16:24:21;17.40;99.90
18160;DHT22;9205;52.032;4.314;2023-09-19T16:26:50;17.50;99.90
18160;DHT22;9205;52.032;4.314;2023-09-19T16:29:17;17.60;99.90